Time;durP1;ratioP1;P1;durP2;ratioP2;P2;SDS_P1;SDS_P2;PMS_P1;PMS_P2;Temp;Humidity;BMP_temperature;BMP_pressure;BME280_temperature;BME280_humidity;BME280_pressure;Samples;Min_cycle;Max_cycle;Signal;HPM_P1;HPM_P2
2022/01/02 00:01:57;;;;;;;12.13;5.90;;;;;;;10.46;94.71;101813.69;5007422;28;20261;-84
2022/01/02 00:04:23;;;;;;;11.25;5.95;;;;;;;10.45;94.68;101806.75;5023978;28;20033;-85
2022/01/02 00:06:52;;;;;;;11.15;6.22;;;;;;;10.45;94.98;101793.66;5005099;28;20290;-84
2022/01/02 00:09:39;;;;;;;6.35;5.25;;;;;;;10.45;95.12;101780.56;5024158;28;20048;-84
2022/01/02 00:12:10;;;;;;;12.43;5.93;;;;;;;10.44;95.18;101784.06;5018363;28;20022;-85
2022/01/02 00:14:37;;;;;;;12.13;5.32;;;;;;;10.43;95.07;101782.34;5007299;28;20037;-84
2022/01/02 00:17:05;;;;;;;8.35;5.32;;;;;;;10.42;95.28;101776.22;4990474;28;20025;-84
2022/01/02 00:19:32;;;;;;;11.68;6.05;;;;;;;10.41;95.75;101776.28;4993928;28;20037;-85
2022/01/02 00:22:00;;;;;;;9.18;5.28;;;;;;;10.40;95.60;101777.19;5034055;28;20217;-84
2022/01/02 00:24:27;;;;;;;7.28;5.25;;;;;;;10.40;95.81;101792.88;4986797;28;20041;-84
2022/01/02 00:26:53;;;;;;;10.05;5.93;;;;;;;10.38;95.71;101803.41;5018266;28;20064;-84
2022/01/02 00:29:18;;;;;;;11.13;5.32;;;;;;;10.37;96.02;101794.69;5015347;28;20049;-85
2022/01/02 00:31:43;;;;;;;6.00;5.05;;;;;;;10.38;96.06;101793.78;5006930;28;20029;-84
2022/01/02 00:34:09;;;;;;;11.00;5.00;;;;;;;10.39;96.02;101784.19;5007427;28;20025;-85
2022/01/02 00:36:35;;;;;;;15.63;5.15;;;;;;;10.38;96.17;101764.97;5006366;28;20041;-85
2022/01/02 00:39:00;;;;;;;9.00;5.72;;;;;;;10.40;96.53;101767.56;5026293;28;20446;-85
2022/01/02 00:41:53;;;;;;;10.88;5.50;;;;;;;10.40;96.28;101758.84;5003983;28;20025;-84
2022/01/02 00:44:45;;;;;;;7.32;4.65;;;;;;;10.39;96.68;101771.09;4975266;28;20034;-84
2022/01/02 00:47:26;;;;;;;15.00;6.07;;;;;;;10.41;96.51;101765.81;5019556;28;20025;-85
2022/01/02 00:50:09;;;;;;;18.33;5.90;;;;;;;10.40;96.68;101754.47;5023413;28;20291;-84
2022/01/02 00:52:39;;;;;;;13.23;5.68;;;;;;;10.40;96.76;101740.53;5008493;28;20032;-84
2022/01/02 00:55:09;;;;;;;12.00;5.63;;;;;;;10.41;96.79;101747.50;5022354;28;20045;-85
2022/01/02 00:57:36;;;;;;;9.65;5.80;;;;;;;10.40;97.30;101737.91;5041219;28;20071;-84
2022/01/02 01:00:13;;;;;;;15.13;5.95;;;;;;;10.40;97.19;101741.38;5007110;28;20038;-84
2022/01/02 01:02:40;;;;;;;11.90;5.95;;;;;;;10.40;97.09;101735.28;5023160;28;20361;-85
2022/01/02 01:05:07;;;;;;;13.25;5.13;;;;;;;10.39;97.15;101744.91;4991358;28;20052;-84
2022/01/02 01:07:33;;;;;;;13.98;5.32;;;;;;;10.40;97.47;101748.38;5006706;28;20044;-85
2022/01/02 01:09:58;;;;;;;14.10;5.78;;;;;;;10.40;97.28;101730.91;5010558;28;20291;-84
2022/01/02 01:12:24;;;;;;;9.30;5.45;;;;;;;10.40;97.27;101701.25;5044636;28;20064;-85
2022/01/02 01:14:50;;;;;;;13.40;5.40;;;;;;;10.40;97.23;101691.63;5010924;28;20021;-84
2022/01/02 01:17:15;;;;;;;9.43;4.78;;;;;;;10.41;97.18;101690.72;4994421;28;20037;-84
2022/01/02 01:19:41;;;;;;;12.07;5.10;;;;;;;10.40;97.31;101691.63;5027397;28;20114;-85
2022/01/02 01:22:08;;;;;;;9.52;4.95;;;;;;;10.41;97.41;101682.88;4994653;28;20045;-84
2022/01/02 01:24:35;;;;;;;8.43;4.35;;;;;;;10.42;97.47;101679.34;5027041;28;20056;-85
2022/01/02 01:27:03;;;;;;;9.45;4.80;;;;;;;10.43;97.33;101674.97;5010760;28;20033;-85
2022/01/02 01:29:34;;;;;;;8.75;4.75;;;;;;;10.44;97.28;101674.94;5027063;28;20057;-84
2022/01/02 01:32:00;;;;;;;13.50;5.35;;;;;;;10.43;97.16;101683.69;4994932;28;20056;-84
2022/01/02 01:34:26;;;;;;;9.55;4.35;;;;;;;10.45;97.18;101675.81;5026990;28;20037;-84
2022/01/02 01:36:51;;;;;;;8.45;4.47;;;;;;;10.44;97.27;101667.09;5044254;28;20037;-84
2022/01/02 01:39:17;;;;;;;13.32;5.07;;;;;;;10.47;97.22;101666.13;5010487;28;20053;-84
2022/01/02 01:41:42;;;;;;;17.17;5.10;;;;;;;10.46;97.29;101660.06;4993852;28;20362;-84
2022/01/02 01:46:39;;;;;;;13.75;4.20;;;;;;;10.49;97.05;101651.22;5004995;28;20037;-85
2022/01/02 01:49:18;;;;;;;6.05;3.70;;;;;;;10.52;97.22;101656.41;5039525;28;20048;-83
2022/01/02 01:51:43;;;;;;;15.25;4.70;;;;;;;10.52;97.30;101659.88;5010393;28;20336;-85
2022/01/02 01:54:09;;;;;;;15.13;4.45;;;;;;;10.54;97.14;101658.06;5010011;28;20025;-85
2022/01/02 01:56:35;;;;;;;9.50;3.53;;;;;;;10.54;97.16;101644.97;5005373;28;20096;-84
2022/01/02 01:59:01;;;;;;;12.25;4.70;;;;;;;10.55;97.13;101644.09;4987867;28;20044;-84
2022/01/02 02:04:39;;;;;;;7.82;3.85;;;;;;;10.56;96.97;101640.53;5018211;28;20084;-84
2022/01/02 02:07:05;;;;;;;7.47;3.40;;;;;;;10.57;97.15;101639.66;5023819;28;20037;-84
2022/01/02 02:09:42;;;;;;;12.85;4.30;;;;;;;10.59;96.82;101637.00;5024719;28;20037;-84
2022/01/02 02:12:08;;;;;;;12.20;3.45;;;;;;;10.60;96.98;101620.38;5026705;28;20341;-84
2022/01/02 02:14:33;;;;;;;10.52;3.60;;;;;;;10.61;97.13;101627.34;5025977;28;20041;-84
2022/01/02 02:16:58;;;;;;;12.80;3.88;;;;;;;10.62;97.00;101617.69;5024781;28;20043;-85
2022/01/02 02:19:24;;;;;;;10.60;3.88;;;;;;;10.64;96.92;101635.13;5009358;28;20049;-85
2022/01/02 02:21:49;;;;;;;9.15;3.63;;;;;;;10.63;96.68;101622.06;5042670;28;20224;-84
2022/01/02 02:24:15;;;;;;;10.07;3.75;;;;;;;10.63;97.10;101615.03;5025056;28;20082;-84
2022/01/02 02:26:40;;;;;;;11.30;4.22;;;;;;;10.64;96.94;101624.63;5041953;28;20045;-84
2022/01/02 02:29:05;;;;;;;6.72;3.25;;;;;;;10.66;96.87;101614.97;5008145;28;20045;-84
2022/01/02 02:31:31;;;;;;;20.38;5.35;;;;;;;10.66;96.64;101611.47;5008932;28;20048;-84
2022/01/02 02:33:56;;;;;;;8.10;3.95;;;;;;;10.67;96.84;101598.34;5024269;28;20049;-84
2022/01/02 02:36:22;;;;;;;13.15;3.60;;;;;;;10.67;96.59;101600.94;5025163;28;20343;-84
2022/01/02 02:38:47;;;;;;;8.32;3.17;;;;;;;10.68;96.84;101607.91;5024343;28;20139;-83
2022/01/02 02:41:13;;;;;;;10.70;3.67;;;;;;;10.69;96.86;101593.06;5024908;28;20037;-83
2022/01/02 02:49:05;;;;;;;9.80;3.50;;;;;;;10.71;96.46;101573.78;5027465;28;20040;-84
2022/01/02 02:51:54;;;;;;;10.73;3.58;;;;;;;10.71;96.83;101558.06;4990686;28;20288;-84
2022/01/02 02:54:24;;;;;;;10.13;3.90;;;;;;;10.71;96.56;101571.16;5026137;28;20029;-84
2022/01/02 02:59:22;;;;;;;9.00;3.47;;;;;;;10.73;96.52;101586.81;5026375;28;20068;-84
2022/01/02 03:01:47;;;;;;;8.57;3.33;;;;;;;10.74;96.56;101588.53;5018752;28;20096;-83
2022/01/02 03:04:12;;;;;;;8.27;3.08;;;;;;;10.74;96.56;101585.91;5023827;28;20585;-85
2022/01/02 03:06:38;;;;;;;14.85;4.18;;;;;;;10.76;96.74;101590.19;5024324;28;20029;-84
2022/01/02 03:09:10;;;;;;;6.68;2.78;;;;;;;10.80;96.46;101590.13;5024026;28;20049;-84
2022/01/02 03:11:37;;;;;;;8.57;3.28;;;;;;;10.83;96.45;101583.03;5041760;28;20041;-85
2022/01/02 03:14:02;;;;;;;8.25;2.78;;;;;;;10.84;96.38;101574.28;5023422;28;20052;-84
2022/01/02 03:16:28;;;;;;;6.50;2.85;;;;;;;10.84;96.19;101563.78;5008116;28;20237;-84
2022/01/02 03:18:54;;;;;;;5.70;2.70;;;;;;;10.85;96.20;101564.66;5023480;28;20416;-84
2022/01/02 03:21:20;;;;;;;18.58;3.88;;;;;;;10.84;96.34;101561.16;5041736;28;20045;-84
2022/01/02 03:23:45;;;;;;;11.18;3.90;;;;;;;10.84;96.31;101545.44;5007726;28;20037;-84
2022/01/02 03:26:11;;;;;;;10.55;4.35;;;;;;;10.85;96.23;101548.91;4991360;28;20043;-84
2022/01/02 03:28:36;;;;;;;7.25;3.08;;;;;;;10.85;96.39;101538.44;5023918;28;20231;-84
2022/01/02 03:31:02;;;;;;;7.28;3.60;;;;;;;10.85;96.53;101533.19;5002986;28;20068;-85
2022/01/02 03:33:27;;;;;;;7.18;2.60;;;;;;;10.86;96.44;101522.69;4989960;28;20115;-84
2022/01/02 03:35:52;;;;;;;17.63;3.53;;;;;;;10.87;96.16;101520.91;5041188;28;20049;-84
2022/01/02 03:38:18;;;;;;;9.30;3.60;;;;;;;10.87;96.10;101529.63;5023891;28;20029;-84
2022/01/02 03:40:43;;;;;;;15.35;3.58;;;;;;;10.88;96.10;101527.88;5041860;28;20041;-84
2022/01/02 03:43:09;;;;;;;8.50;2.55;;;;;;;10.88;96.12;101520.88;5023451;28;20029;-84
2022/01/02 03:45:34;;;;;;;8.68;3.40;;;;;;;10.90;95.84;101523.44;5042237;28;20093;-84
2022/01/02 03:48:00;;;;;;;7.82;2.90;;;;;;;10.90;96.11;101516.44;5007071;28;20079;-85
2022/01/02 03:50:25;;;;;;;10.80;3.20;;;;;;;10.91;95.94;101515.53;5024189;28;20076;-84
2022/01/02 03:52:51;;;;;;;9.02;2.63;;;;;;;10.92;95.77;101514.59;5040743;28;20037;-85
2022/01/02 03:55:16;;;;;;;9.07;2.90;;;;;;;10.91;95.41;101510.28;5023946;28;20022;-85
2022/01/02 03:57:41;;;;;;;6.95;2.90;;;;;;;10.91;95.70;101497.19;5041810;28;20043;-85
2022/01/02 04:00:09;;;;;;;8.27;3.00;;;;;;;10.91;95.41;101494.56;5023832;28;20048;-85
2022/01/02 04:02:37;;;;;;;8.70;2.85;;;;;;;10.92;95.48;101492.78;5023376;28;20093;-85
2022/01/02 04:05:07;;;;;;;8.70;3.07;;;;;;;10.91;95.67;101491.94;5006114;28;20029;-84
2022/01/02 04:07:32;;;;;;;10.73;3.05;;;;;;;10.90;95.52;101497.22;5041026;28;20037;-85
2022/01/02 04:10:04;;;;;;;5.47;2.85;;;;;;;10.90;95.58;101477.13;5022683;28;20079;-84
2022/01/02 04:12:29;;;;;;;8.63;3.00;;;;;;;10.90;95.28;101492.84;5023213;28;20040;-85
2022/01/02 04:14:55;;;;;;;8.30;3.08;;;;;;;10.88;95.27;101486.78;5023215;28;20041;-85
2022/01/02 04:17:20;;;;;;;7.40;3.15;;;;;;;10.89;95.28;101490.25;5023333;28;20029;-85
2022/01/02 04:19:46;;;;;;;5.18;3.15;;;;;;;10.88;95.29;101488.56;5006935;28;20366;-85
2022/01/02 04:22:11;;;;;;;7.53;3.72;;;;;;;10.88;95.39;101486.78;5022717;28;20092;-85
2022/01/02 04:24:36;;;;;;;13.45;3.83;;;;;;;10.87;95.11;101492.06;5023192;28;20040;-84
2022/01/02 04:27:02;;;;;;;10.90;3.30;;;;;;;10.86;95.30;101482.50;5023003;28;20111;-85
2022/01/02 04:29:27;;;;;;;7.63;3.55;;;;;;;10.87;95.30;101469.34;5019870;28;20483;-85
2022/01/02 04:31:53;;;;;;;13.32;3.70;;;;;;;10.85;95.23;101458.06;5012964;28;20044;-85
2022/01/02 04:34:18;;;;;;;8.32;3.33;;;;;;;10.85;95.14;101468.53;5017644;28;20048;-85
2022/01/02 04:36:44;;;;;;;13.43;3.78;;;;;;;10.84;95.21;101458.09;5008707;28;20041;-85
2022/01/02 04:39:09;;;;;;;11.45;3.50;;;;;;;10.84;95.13;101452.88;5005338;28;20100;-85
2022/01/02 04:41:35;;;;;;;11.65;3.47;;;;;;;10.83;95.37;101454.63;5000678;28;20038;-85
2022/01/02 04:44:00;;;;;;;6.70;3.33;;;;;;;10.84;95.46;101442.38;5003547;28;20057;-85
2022/01/02 04:46:25;;;;;;;7.75;2.97;;;;;;;10.83;95.37;101438.91;5004292;28;20050;-84
2022/01/02 04:48:51;;;;;;;8.10;3.28;;;;;;;10.82;95.52;101428.47;5019515;28;20042;-85
2022/01/02 04:51:16;;;;;;;14.15;4.10;;;;;;;10.80;95.55;101422.44;5005859;28;20046;-85
2022/01/02 04:53:47;;;;;;;5.57;2.72;;;;;;;10.82;95.51;101425.84;4971542;28;20334;-85
2022/01/02 04:56:13;;;;;;;7.38;3.35;;;;;;;10.80;95.41;101412.81;5012928;28;20041;-85
2022/01/02 04:58:38;;;;;;;8.38;3.50;;;;;;;10.80;95.75;101391.00;5007594;28;20348;-85
2022/01/02 05:01:03;;;;;;;9.75;3.58;;;;;;;10.79;95.90;101389.25;5017315;28;20038;-85
2022/01/02 05:03:29;;;;;;;6.32;3.15;;;;;;;10.78;95.87;101384.94;5005523;28;20038;-85
2022/01/02 05:05:54;;;;;;;7.97;3.30;;;;;;;10.78;96.38;101387.56;5024562;28;20188;-85
2022/01/02 05:08:20;;;;;;;9.73;3.33;;;;;;;10.78;96.21;101387.56;5021723;28;20045;-85
2022/01/02 05:10:46;;;;;;;6.85;3.42;;;;;;;10.76;96.22;101380.59;5004364;28;20313;-84
2022/01/02 05:13:11;;;;;;;5.95;3.53;;;;;;;10.77;96.28;101386.72;5003612;28;20035;-85
2022/01/02 05:15:36;;;;;;;8.20;3.50;;;;;;;10.78;96.30;101371.84;4988584;28;20040;-84
2022/01/02 05:18:02;;;;;;;10.68;3.45;;;;;;;10.77;95.94;101368.38;5002785;28;20325;-85
2022/01/02 05:20:27;;;;;;;12.23;3.67;;;;;;;10.77;96.16;101357.91;5006083;28;20033;-85
2022/01/02 05:22:53;;;;;;;7.35;2.88;;;;;;;10.77;95.94;101360.53;5022577;28;20045;-85
2022/01/02 05:25:18;;;;;;;7.43;2.83;;;;;;;10.77;96.27;101355.28;5021358;28;20034;-85
2022/01/02 05:27:44;;;;;;;8.52;3.45;;;;;;;10.77;96.07;101336.94;5020354;28;20072;-85
2022/01/02 05:30:10;;;;;;;11.80;3.75;;;;;;;10.78;96.42;101332.56;5005274;28;20064;-84
2022/01/02 05:32:35;;;;;;;4.70;3.00;;;;;;;10.77;96.26;101329.09;5011941;28;20027;-85
2022/01/02 05:35:02;;;;;;;5.88;3.13;;;;;;;10.77;96.26;101321.22;4986725;28;20030;-85
2022/01/02 05:37:27;;;;;;;4.57;2.80;;;;;;;10.76;95.99;101319.50;5013571;28;20231;-85
2022/01/02 05:39:53;;;;;;;5.50;3.25;;;;;;;10.76;96.04;101312.47;5010185;28;20038;-85
2022/01/02 05:42:18;;;;;;;7.97;3.67;;;;;;;10.76;96.03;101309.88;5020106;28;20026;-85
2022/01/02 05:44:43;;;;;;;11.52;3.17;;;;;;;10.76;95.71;101309.88;5022891;28;20033;-85
2022/01/02 05:47:09;;;;;;;8.00;3.30;;;;;;;10.76;95.88;101293.31;5005338;28;20050;-85
2022/01/02 05:49:34;;;;;;;7.50;3.67;;;;;;;10.76;95.65;101290.69;4970772;28;20014;-85
2022/01/02 05:52:00;;;;;;;5.32;3.38;;;;;;;10.76;95.47;101286.28;4986144;28;20037;-85
2022/01/02 05:54:25;;;;;;;11.00;3.80;;;;;;;10.77;95.85;101274.06;5004179;28;20038;-84
2022/01/02 05:56:51;;;;;;;6.45;3.90;;;;;;;10.76;95.53;101261.88;5004064;28;20034;-85
2022/01/02 05:59:16;;;;;;;8.65;3.08;;;;;;;10.76;95.71;101254.00;5003851;28;20348;-85
2022/01/02 06:01:41;;;;;;;12.82;3.65;;;;;;;10.75;95.27;101260.13;5002452;28;20311;-85
2022/01/02 06:04:07;;;;;;;5.50;3.40;;;;;;;10.75;95.20;101257.53;4985711;28;20140;-85
2022/01/02 06:06:32;;;;;;;4.65;3.15;;;;;;;10.75;95.31;101265.38;5004174;28;20044;-84
2022/01/02 06:08:58;;;;;;;6.85;3.40;;;;;;;10.74;95.43;101243.56;4965914;28;20092;-84
2022/01/02 06:11:23;;;;;;;7.35;3.40;;;;;;;10.76;95.00;101240.91;4983254;28;20022;-85
2022/01/02 06:13:49;;;;;;;13.23;3.47;;;;;;;10.74;95.16;101245.34;4983490;28;20054;-85
2022/01/02 06:16:14;;;;;;;9.95;3.88;;;;;;;10.74;94.92;101237.50;4982433;28;20094;-84
2022/01/02 06:18:39;;;;;;;6.53;3.50;;;;;;;10.73;94.78;101227.91;4951119;28;20047;-85
2022/01/02 06:21:05;;;;;;;9.98;3.40;;;;;;;10.72;94.87;101215.72;4966818;28;20035;-85
2022/01/02 06:23:30;;;;;;;9.00;3.70;;;;;;;10.72;94.78;101215.72;4950936;28;20022;-85
2022/01/02 06:25:56;;;;;;;7.65;3.72;;;;;;;10.72;94.77;101202.63;4982459;28;20034;-85
2022/01/02 06:28:21;;;;;;;12.60;2.90;;;;;;;10.71;94.70;101193.94;4982852;28;20043;-85
2022/01/02 06:30:47;;;;;;;7.55;3.45;;;;;;;10.71;94.49;101196.56;4982737;28;20055;-84
2022/01/02 06:33:12;;;;;;;5.70;3.03;;;;;;;10.71;94.39;101183.44;4983981;28;20050;-85
2022/01/02 06:35:37;;;;;;;6.70;4.38;;;;;;;10.71;94.26;101187.81;4988267;28;20038;-85
2022/01/02 06:38:11;;;;;;;5.35;3.67;;;;;;;10.71;94.54;101172.09;5003293;28;20220;-85
2022/01/02 06:40:36;;;;;;;10.80;3.42;;;;;;;10.71;94.60;101177.34;5019163;28;20338;-85
2022/01/02 06:43:02;;;;;;;5.68;4.15;;;;;;;10.72;94.48;101179.06;4984839;28;20034;-84
2022/01/02 06:45:29;;;;;;;4.57;3.08;;;;;;;10.72;94.22;101171.19;5002235;28;20058;-85
2022/01/02 06:47:54;;;;;;;8.02;3.17;;;;;;;10.72;94.08;101174.66;5017738;28;20049;-85
2022/01/02 06:50:19;;;;;;;11.43;3.47;;;;;;;10.73;93.85;101170.28;5002540;28;20061;-85
2022/01/02 06:52:45;;;;;;;6.85;3.00;;;;;;;10.72;93.88;101158.09;5002543;28;20265;-85
2022/01/02 06:55:10;;;;;;;7.72;3.63;;;;;;;10.73;94.02;101162.41;5002440;28;20416;-84
2022/01/02 06:57:36;;;;;;;7.75;3.13;;;;;;;10.72;93.73;101168.59;5001358;28;20065;-85
2022/01/02 07:00:03;;;;;;;5.05;2.58;;;;;;;10.71;93.43;101167.75;4965881;28;20198;-84
2022/01/02 07:02:29;;;;;;;4.60;2.97;;;;;;;10.71;93.52;101165.13;4990406;28;20105;-85
2022/01/02 07:04:54;;;;;;;3.78;2.63;;;;;;;10.72;93.51;101169.44;4988294;28;20050;-85
2022/01/02 07:07:20;;;;;;;5.60;3.03;;;;;;;10.74;93.57;101172.00;5001969;28;20453;-85
2022/01/02 07:09:45;;;;;;;5.63;2.70;;;;;;;10.73;93.53;101171.16;5001723;28;20036;-84
2022/01/02 07:12:10;;;;;;;7.47;3.20;;;;;;;10.75;93.22;101163.22;5000653;28;20325;-85
2022/01/02 07:14:36;;;;;;;9.63;2.80;;;;;;;10.76;93.16;101180.66;5016070;28;20045;-85
2022/01/02 07:17:02;;;;;;;6.55;3.65;;;;;;;10.78;93.28;101189.31;5001028;28;20359;-85
2022/01/02 07:19:27;;;;;;;4.15;2.92;;;;;;;10.79;93.07;101180.56;5001703;28;20371;-85
2022/01/02 07:21:53;;;;;;;6.00;3.40;;;;;;;10.80;92.97;101173.53;4984670;28;20038;-84
2022/01/02 07:24:18;;;;;;;7.40;2.90;;;;;;;10.81;92.81;101188.34;5001330;28;20053;-85
2022/01/02 07:26:44;;;;;;;4.20;3.28;;;;;;;10.83;92.75;101208.34;5001042;28;20026;-85
2022/01/02 07:29:10;;;;;;;7.35;2.90;;;;;;;10.84;92.71;101180.38;4985172;28;20095;-84
2022/01/02 07:31:35;;;;;;;7.18;2.70;;;;;;;10.86;92.46;101192.53;4987087;28;20022;-85
2022/01/02 07:34:01;;;;;;;5.13;2.50;;;;;;;10.88;92.35;101200.34;4983921;28;20225;-85
2022/01/02 07:36:26;;;;;;;3.85;2.70;;;;;;;10.88;92.33;101205.56;4984470;28;20026;-85
2022/01/02 07:38:52;;;;;;;4.65;3.03;;;;;;;10.89;92.34;101200.25;4984229;28;20450;-85
2022/01/02 07:41:17;;;;;;;5.28;2.50;;;;;;;10.89;92.48;101202.88;4984479;28;20495;-84
2022/01/02 07:43:43;;;;;;;3.08;2.47;;;;;;;10.88;92.20;101182.84;5002061;28;20038;-85
2022/01/02 07:46:08;;;;;;;5.47;2.72;;;;;;;10.90;92.40;101193.25;4983680;28;20030;-85
2022/01/02 07:48:33;;;;;;;5.65;2.78;;;;;;;10.90;92.29;101193.25;4992796;28;20033;-85
2022/01/02 07:50:59;;;;;;;8.93;2.70;;;;;;;10.89;92.23;101183.69;5008417;28;20042;-85
2022/01/02 07:53:24;;;;;;;6.38;3.15;;;;;;;10.89;92.53;101171.44;5007142;28;20344;-85
2022/01/02 07:55:50;;;;;;;7.18;3.53;;;;;;;10.88;92.47;101185.47;4981834;28;20038;-84
2022/01/02 07:58:15;;;;;;;7.57;2.72;;;;;;;10.89;92.64;101166.19;4959315;28;20046;-85
2022/01/02 08:00:41;;;;;;;3.70;2.70;;;;;;;10.88;92.82;101187.22;4983803;28;20360;-84
2022/01/02 08:03:06;;;;;;;7.45;4.63;;;;;;;10.90;92.65;101193.25;4995160;28;20042;-84
2022/01/02 08:05:32;;;;;;;8.73;3.63;;;;;;;10.92;92.92;101183.56;5010199;28;20217;-85
2022/01/02 08:07:58;;;;;;;6.43;3.17;;;;;;;10.92;92.98;101178.34;4997617;28;20248;-85
2022/01/02 08:10:25;;;;;;;5.07;3.20;;;;;;;10.91;92.96;101187.97;4992802;28;20372;-85
2022/01/02 08:12:51;;;;;;;9.02;3.35;;;;;;;10.89;92.91;101176.66;4977912;28;20288;-85
2022/01/02 08:15:17;;;;;;;4.68;3.33;;;;;;;10.90;93.22;101199.34;4974504;28;20102;-85
2022/01/02 08:17:43;;;;;;;4.88;3.33;;;;;;;10.90;92.83;101177.53;4981625;28;20061;-85
2022/01/02 08:20:09;;;;;;;6.50;3.72;;;;;;;10.89;92.99;101187.16;4992048;28;20337;-85
2022/01/02 08:22:34;;;;;;;8.25;3.60;;;;;;;10.87;93.10;101186.34;4976186;28;20050;-85
2022/01/02 08:24:59;;;;;;;6.05;4.00;;;;;;;10.87;92.61;101178.50;4997086;28;20341;-85
2022/01/02 08:27:25;;;;;;;7.38;4.00;;;;;;;10.84;92.84;101180.38;4994932;28;20042;-84
2022/01/02 08:29:50;;;;;;;4.38;3.72;;;;;;;10.83;92.80;101187.38;5003858;28;20081;-85
2022/01/02 08:32:16;;;;;;;9.13;4.30;;;;;;;10.82;92.57;101180.41;5012246;28;20038;-84
2022/01/02 08:34:41;;;;;;;6.60;4.55;;;;;;;10.80;92.54;101177.00;5013592;28;20508;-85
2022/01/02 08:37:06;;;;;;;9.32;4.85;;;;;;;10.78;92.44;101178.81;5014737;28;20033;-85
2022/01/02 08:39:32;;;;;;;8.43;4.03;;;;;;;10.76;92.43;101176.25;5001058;28;20036;-85
2022/01/02 08:41:57;;;;;;;7.03;4.32;;;;;;;10.75;92.64;101171.06;5016703;28;20072;-84
2022/01/02 08:44:23;;;;;;;5.50;4.20;;;;;;;10.73;92.59;101173.78;5019068;28;20084;-85
2022/01/02 08:46:50;;;;;;;9.15;4.38;;;;;;;10.71;92.23;101170.34;5016044;28;20057;-84
2022/01/02 08:49:16;;;;;;;6.15;4.45;;;;;;;10.70;92.13;101170.41;5000151;28;20037;-84
2022/01/02 08:51:41;;;;;;;4.50;3.90;;;;;;;10.68;92.18;101159.97;5000956;28;20056;-85
2022/01/02 08:54:07;;;;;;;4.10;3.70;;;;;;;10.66;91.98;101174.91;5000414;28;20034;-84
2022/01/02 08:56:32;;;;;;;4.13;3.70;;;;;;;10.65;92.05;101181.03;5017571;28;20045;-84
2022/01/02 08:58:58;;;;;;;7.20;4.22;;;;;;;10.64;92.09;101171.47;5000239;28;20361;-84
2022/01/02 09:01:23;;;;;;;5.75;3.67;;;;;;;10.63;91.72;101168.91;5017699;28;20058;-85
2022/01/02 09:03:49;;;;;;;5.40;4.00;;;;;;;10.62;91.92;101167.19;5017475;28;20044;-85
2022/01/02 09:06:15;;;;;;;7.80;4.20;;;;;;;10.62;91.76;101173.28;5017606;28;20048;-85
2022/01/02 09:08:41;;;;;;;9.82;3.92;;;;;;;10.63;91.28;101176.78;5000643;28;20037;-85
2022/01/02 09:11:06;;;;;;;5.32;4.40;;;;;;;10.61;91.43;101187.28;5013659;28;20038;-85
2022/01/02 09:13:32;;;;;;;6.53;3.90;;;;;;;10.61;91.19;101176.81;5017469;28;20026;-85
2022/01/02 09:15:57;;;;;;;5.60;4.20;;;;;;;10.62;91.22;101172.44;5000247;28;20048;-85
2022/01/02 09:18:23;;;;;;;5.63;4.22;;;;;;;10.63;90.84;101195.09;5001076;28;20041;-85
2022/01/02 09:20:48;;;;;;;6.75;4.07;;;;;;;10.63;91.01;101187.25;5017157;28;20042;-84
2022/01/02 09:23:13;;;;;;;7.28;4.45;;;;;;;10.64;90.66;101174.09;5016330;28;20014;-85
2022/01/02 09:25:39;;;;;;;4.38;3.90;;;;;;;10.64;90.45;101181.97;5015923;28;20060;-85
2022/01/02 09:28:04;;;;;;;5.38;4.20;;;;;;;10.64;90.80;101196.78;5016765;28;20021;-85
2022/01/02 09:30:30;;;;;;;9.10;4.55;;;;;;;10.62;90.89;101183.75;5024327;28;20120;-85
2022/01/02 09:32:57;;;;;;;5.15;4.40;;;;;;;10.62;91.13;101199.47;5040651;28;20055;-85
2022/01/02 09:35:22;;;;;;;13.35;4.05;;;;;;;10.61;91.17;101195.16;5039973;28;20175;-84
2022/01/02 09:37:47;;;;;;;6.40;4.75;;;;;;;10.62;90.80;101190.75;5039743;28;20375;-83
2022/01/02 09:40:13;;;;;;;8.18;4.47;;;;;;;10.64;90.68;101188.94;5011213;28;20038;-84
2022/01/02 09:42:39;;;;;;;9.55;4.93;;;;;;;10.65;90.68;101203.75;5017478;28;20277;-85
2022/01/02 09:45:05;;;;;;;10.52;4.72;;;;;;;10.65;90.61;101190.66;5017742;28;20045;-84
2022/01/02 09:47:30;;;;;;;5.35;3.60;;;;;;;10.64;90.89;101189.81;5016761;28;20038;-84
2022/01/02 09:49:57;;;;;;;7.95;4.13;;;;;;;10.65;90.77;101190.66;4987896;28;20430;-84
2022/01/02 09:52:22;;;;;;;5.40;4.05;;;;;;;10.66;90.77;101182.75;5003176;28;20030;-85
2022/01/02 09:54:48;;;;;;;5.82;4.40;;;;;;;10.68;91.14;101187.94;5019371;28;20064;-84
2022/01/02 09:57:13;;;;;;;6.57;4.18;;;;;;;10.67;90.80;101192.31;5015140;28;20064;-84
2022/01/02 09:59:39;;;;;;;6.75;4.55;;;;;;;10.69;91.08;101200.13;5019358;28;20041;-85
2022/01/02 10:02:04;;;;;;;6.05;3.67;;;;;;;10.71;90.69;101193.06;5027168;28;20041;-85
2022/01/02 10:04:37;;;;;;;7.47;3.85;;;;;;;10.72;90.85;101186.91;5012962;28;20109;-84
2022/01/02 10:07:04;;;;;;;6.38;4.03;;;;;;;10.73;90.77;101194.72;5016133;28;20041;-85
2022/01/02 10:09:31;;;;;;;9.32;3.80;;;;;;;10.73;91.10;101186.00;5005444;28;20025;-84
2022/01/02 10:12:28;;;;;;;7.97;4.40;;;;;;;10.74;90.87;101199.03;4985608;28;20038;-84
2022/01/02 10:15:15;;;;;;;12.95;4.88;;;;;;;10.76;90.83;101199.00;5026234;28;20022;-84
2022/01/02 10:17:56;;;;;;;10.40;4.85;;;;;;;10.76;90.98;101180.66;5010403;28;20046;-85
2022/01/02 10:20:26;;;;;;;10.32;4.95;;;;;;;10.77;91.15;101203.34;5020363;28;20120;-85
2022/01/02 10:23:05;;;;;;;11.98;4.45;;;;;;;10.81;90.75;101196.22;5019217;28;20041;-84
2022/01/02 10:25:49;;;;;;;8.77;4.18;;;;;;;10.84;90.82;101194.34;5022132;28;20025;-84
2022/01/02 10:28:26;;;;;;;14.88;4.60;;;;;;;10.84;90.58;101194.34;5016953;28;20332;-84
2022/01/02 10:30:53;;;;;;;9.02;4.00;;;;;;;10.84;91.03;101188.22;5034513;28;20064;-84
2022/01/02 10:33:18;;;;;;;9.02;3.60;;;;;;;10.86;91.12;101207.38;5002692;28;20101;-85
2022/01/02 10:35:43;;;;;;;10.15;3.85;;;;;;;10.86;91.15;101217.84;5031503;28;20041;-84
2022/01/02 10:38:16;;;;;;;12.27;4.57;;;;;;;10.87;91.08;101204.69;5007852;28;20081;-84
2022/01/02 10:40:42;;;;;;;12.95;4.28;;;;;;;10.88;91.36;101227.38;5014112;28;20104;-85
2022/01/02 10:43:24;;;;;;;11.35;3.78;;;;;;;10.93;91.46;101211.47;5037513;28;20291;-84
2022/01/02 10:45:53;;;;;;;19.30;4.20;;;;;;;10.97;91.17;101226.19;5006094;28;20549;-84
2022/01/02 10:48:39;;;;;;;16.27;3.35;;;;;;;11.01;91.26;101216.47;5029548;28;20100;-84
2022/01/02 10:51:14;;;;;;;15.55;3.90;;;;;;;11.05;91.15;101218.06;5018179;28;20049;-84
2022/01/02 10:54:01;;;;;;;14.32;4.13;;;;;;;11.09;91.22;101227.50;5007317;28;20034;-84
2022/01/02 10:56:27;;;;;;;20.35;4.97;;;;;;;11.10;91.04;101234.47;4996321;28;20052;-85
2022/01/02 10:58:53;;;;;;;11.55;3.55;;;;;;;11.13;90.84;101227.34;5002506;28;20053;-84
2022/01/02 11:01:18;;;;;;;13.52;3.42;;;;;;;11.15;90.75;101224.66;5034759;28;20203;-85
2022/01/02 11:03:44;;;;;;;16.40;3.45;;;;;;;11.19;90.83;101222.75;5010387;28;20034;-84
2022/01/02 11:06:10;;;;;;;15.77;2.95;;;;;;;11.20;90.86;101230.56;4998764;28;20460;-84
2022/01/02 11:08:37;;;;;;;21.95;3.63;;;;;;;11.20;90.73;101233.19;5017105;28;20049;-84
2022/01/02 11:11:03;;;;;;;17.48;4.05;;;;;;;11.22;90.96;101220.88;4975160;28;20038;-84
2022/01/02 11:13:30;;;;;;;15.07;3.53;;;;;;;11.22;90.76;101228.75;5016277;28;20272;-85
2022/01/02 11:15:55;;;;;;;15.85;3.38;;;;;;;11.23;90.67;101237.50;4987978;28;20105;-84
2022/01/02 11:18:21;;;;;;;14.02;3.80;;;;;;;11.24;90.53;101254.91;5001387;28;20046;-85
2022/01/02 11:20:46;;;;;;;23.08;4.60;;;;;;;11.24;90.85;101252.28;5019642;28;20055;-85
2022/01/02 11:23:23;;;;;;;13.13;2.88;;;;;;;11.26;90.67;101248.72;5011490;28;20065;-85
2022/01/02 11:26:33;;;;;;;15.65;3.58;;;;;;;11.26;91.13;101251.34;4988690;28;21167;-84
2022/01/02 11:28:59;;;;;;;17.92;3.40;;;;;;;11.26;90.61;101258.34;5017868;28;20104;-84
2022/01/02 11:31:39;;;;;;;20.45;4.53;;;;;;;11.28;90.98;101264.41;5003233;28;20041;-85
2022/01/02 11:34:27;;;;;;;22.85;3.47;;;;;;;11.27;90.40;101260.06;4982911;28;20041;-85
2022/01/02 11:37:12;;;;;;;20.88;4.10;;;;;;;11.27;90.49;101266.16;5001301;28;20072;-84